sensor_id;sensor_type;location;lat;lon;timestamp;P1;durP1;ratioP1;P2;durP2;ratioP2
66587;SDS011;53446;50.076;8.198;2022-08-19T00:00:32;19.07;;;13.30;;
66587;SDS011;53446;50.076;8.198;2022-08-19T00:02:33;18.00;;;12.88;;
66587;SDS011;53446;50.076;8.198;2022-08-19T00:04:34;20.37;;;15.00;;
66587;SDS011;53446;50.076;8.198;2022-08-19T00:06:36;17.95;;;13.77;;
66587;SDS011;53446;50.076;8.198;2022-08-19T00:08:38;19.70;;;14.68;;
66587;SDS011;53446;50.076;8.198;2022-08-19T00:10:38;21.47;;;14.87;;
66587;SDS011;53446;50.076;8.198;2022-08-19T00:12:39;18.33;;;13.43;;
66587;SDS011;53446;50.076;8.198;2022-08-19T00:14:39;19.13;;;14.00;;
66587;SDS011;53446;50.076;8.198;2022-08-19T00:16:41;20.88;;;15.52;;
66587;SDS011;53446;50.076;8.198;2022-08-19T00:18:41;18.77;;;13.98;;
66587;SDS011;53446;50.076;8.198;2022-08-19T00:20:42;21.33;;;13.87;;
66587;SDS011;53446;50.076;8.198;2022-08-19T00:22:43;23.93;;;16.27;;
66587;SDS011;53446;50.076;8.198;2022-08-19T00:24:44;20.25;;;14.65;;
66587;SDS011;53446;50.076;8.198;2022-08-19T00:26:45;23.15;;;15.57;;
66587;SDS011;53446;50.076;8.198;2022-08-19T00:28:45;19.23;;;14.25;;
66587;SDS011;53446;50.076;8.198;2022-08-19T00:30:46;19.67;;;15.50;;
66587;SDS011;53446;50.076;8.198;2022-08-19T00:32:47;21.15;;;15.68;;
66587;SDS011;53446;50.076;8.198;2022-08-19T00:34:47;19.50;;;14.20;;
66587;SDS011;53446;50.076;8.198;2022-08-19T00:36:48;19.83;;;14.60;;
66587;SDS011;53446;50.076;8.198;2022-08-19T00:38:48;21.03;;;15.20;;
66587;SDS011;53446;50.076;8.198;2022-08-19T00:40:51;21.80;;;15.95;;
66587;SDS011;53446;50.076;8.198;2022-08-19T00:42:52;20.05;;;15.10;;
66587;SDS011;53446;50.076;8.198;2022-08-19T00:44:53;18.90;;;14.25;;
66587;SDS011;53446;50.076;8.198;2022-08-19T00:46:55;21.07;;;15.20;;
66587;SDS011;53446;50.076;8.198;2022-08-19T00:48:56;22.02;;;14.93;;
66587;SDS011;53446;50.076;8.198;2022-08-19T00:50:57;22.55;;;16.15;;
66587;SDS011;53446;50.076;8.198;2022-08-19T00:52:58;21.30;;;15.23;;
66587;SDS011;53446;50.076;8.198;2022-08-19T00:54:59;20.75;;;15.15;;
66587;SDS011;53446;50.076;8.198;2022-08-19T00:57:01;20.70;;;15.35;;
66587;SDS011;53446;50.076;8.198;2022-08-19T00:59:02;23.52;;;14.98;;
66587;SDS011;53446;50.076;8.198;2022-08-19T01:01:08;21.58;;;15.23;;
66587;SDS011;53446;50.076;8.198;2022-08-19T01:03:10;19.20;;;13.83;;
66587;SDS011;53446;50.076;8.198;2022-08-19T01:05:16;19.77;;;14.63;;
66587;SDS011;53446;50.076;8.198;2022-08-19T01:07:19;22.02;;;15.00;;
66587;SDS011;53446;50.076;8.198;2022-08-19T01:09:20;20.63;;;15.23;;
66587;SDS011;53446;50.076;8.198;2022-08-19T01:11:20;22.23;;;15.37;;
66587;SDS011;53446;50.076;8.198;2022-08-19T01:13:23;20.83;;;15.45;;
66587;SDS011;53446;50.076;8.198;2022-08-19T01:15:27;22.27;;;16.02;;
66587;SDS011;53446;50.076;8.198;2022-08-19T01:17:30;21.35;;;15.10;;
66587;SDS011;53446;50.076;8.198;2022-08-19T01:19:31;24.10;;;16.93;;
66587;SDS011;53446;50.076;8.198;2022-08-19T01:21:40;22.40;;;15.00;;
66587;SDS011;53446;50.076;8.198;2022-08-19T01:23:44;19.17;;;14.73;;
66587;SDS011;53446;50.076;8.198;2022-08-19T01:25:49;22.67;;;15.43;;
66587;SDS011;53446;50.076;8.198;2022-08-19T01:27:51;22.67;;;15.45;;
66587;SDS011;53446;50.076;8.198;2022-08-19T01:29:52;21.45;;;15.52;;
66587;SDS011;53446;50.076;8.198;2022-08-19T01:31:52;23.07;;;16.83;;
66587;SDS011;53446;50.076;8.198;2022-08-19T01:33:54;26.37;;;18.20;;
66587;SDS011;53446;50.076;8.198;2022-08-19T01:36:03;27.83;;;19.50;;
66587;SDS011;53446;50.076;8.198;2022-08-19T01:38:06;23.02;;;16.50;;
66587;SDS011;53446;50.076;8.198;2022-08-19T01:40:08;22.73;;;16.10;;
66587;SDS011;53446;50.076;8.198;2022-08-19T01:42:09;23.80;;;17.25;;
66587;SDS011;53446;50.076;8.198;2022-08-19T01:44:12;26.33;;;17.65;;
66587;SDS011;53446;50.076;8.198;2022-08-19T01:46:12;23.37;;;15.57;;
66587;SDS011;53446;50.076;8.198;2022-08-19T01:48:13;22.40;;;16.40;;
66587;SDS011;53446;50.076;8.198;2022-08-19T01:50:14;23.38;;;16.35;;
66587;SDS011;53446;50.076;8.198;2022-08-19T01:52:14;24.93;;;15.50;;
66587;SDS011;53446;50.076;8.198;2022-08-19T01:54:15;20.53;;;15.50;;
66587;SDS011;53446;50.076;8.198;2022-08-19T01:56:17;20.67;;;15.10;;
66587;SDS011;53446;50.076;8.198;2022-08-19T01:58:19;23.63;;;16.10;;
66587;SDS011;53446;50.076;8.198;2022-08-19T02:00:22;21.50;;;14.27;;
66587;SDS011;53446;50.076;8.198;2022-08-19T02:02:23;20.38;;;13.88;;
66587;SDS011;53446;50.076;8.198;2022-08-19T02:04:24;20.13;;;14.70;;
66587;SDS011;53446;50.076;8.198;2022-08-19T02:06:25;17.83;;;12.98;;
66587;SDS011;53446;50.076;8.198;2022-08-19T02:08:29;20.95;;;14.32;;
66587;SDS011;53446;50.076;8.198;2022-08-19T02:10:30;18.00;;;13.37;;
66587;SDS011;53446;50.076;8.198;2022-08-19T02:12:31;19.02;;;13.60;;
66587;SDS011;53446;50.076;8.198;2022-08-19T02:14:33;18.70;;;13.23;;
66587;SDS011;53446;50.076;8.198;2022-08-19T02:16:34;21.05;;;14.77;;
66587;SDS011;53446;50.076;8.198;2022-08-19T02:18:35;16.63;;;12.73;;
66587;SDS011;53446;50.076;8.198;2022-08-19T02:20:36;17.00;;;12.60;;
66587;SDS011;53446;50.076;8.198;2022-08-19T02:22:37;16.92;;;12.38;;
66587;SDS011;53446;50.076;8.198;2022-08-19T02:24:37;20.03;;;13.90;;
66587;SDS011;53446;50.076;8.198;2022-08-19T02:26:38;16.40;;;12.20;;
66587;SDS011;53446;50.076;8.198;2022-08-19T02:28:39;21.20;;;14.23;;
66587;SDS011;53446;50.076;8.198;2022-08-19T02:30:40;21.63;;;13.27;;
66587;SDS011;53446;50.076;8.198;2022-08-19T02:32:41;17.40;;;12.93;;
66587;SDS011;53446;50.076;8.198;2022-08-19T02:34:42;18.17;;;12.43;;
66587;SDS011;53446;50.076;8.198;2022-08-19T02:36:42;15.63;;;11.87;;
66587;SDS011;53446;50.076;8.198;2022-08-19T02:38:42;18.20;;;13.55;;
66587;SDS011;53446;50.076;8.198;2022-08-19T02:40:50;16.13;;;11.75;;
66587;SDS011;53446;50.076;8.198;2022-08-19T02:42:55;16.90;;;12.30;;
66587;SDS011;53446;50.076;8.198;2022-08-19T02:44:55;18.20;;;13.17;;
66587;SDS011;53446;50.076;8.198;2022-08-19T02:46:56;18.73;;;12.23;;
66587;SDS011;53446;50.076;8.198;2022-08-19T02:48:57;17.27;;;12.27;;
66587;SDS011;53446;50.076;8.198;2022-08-19T02:51:00;18.75;;;13.18;;
66587;SDS011;53446;50.076;8.198;2022-08-19T02:53:00;17.70;;;13.03;;
66587;SDS011;53446;50.076;8.198;2022-08-19T02:55:01;17.50;;;12.85;;
66587;SDS011;53446;50.076;8.198;2022-08-19T02:57:01;15.48;;;11.70;;
66587;SDS011;53446;50.076;8.198;2022-08-19T02:59:02;19.97;;;13.40;;
66587;SDS011;53446;50.076;8.198;2022-08-19T03:01:10;21.35;;;13.98;;
66587;SDS011;53446;50.076;8.198;2022-08-19T03:03:10;17.08;;;12.95;;
66587;SDS011;53446;50.076;8.198;2022-08-19T03:05:11;16.10;;;11.98;;
66587;SDS011;53446;50.076;8.198;2022-08-19T03:07:15;20.33;;;13.23;;
66587;SDS011;53446;50.076;8.198;2022-08-19T03:09:17;18.08;;;13.48;;
66587;SDS011;53446;50.076;8.198;2022-08-19T03:11:20;17.77;;;12.73;;
66587;SDS011;53446;50.076;8.198;2022-08-19T03:13:29;17.77;;;13.23;;
66587;SDS011;53446;50.076;8.198;2022-08-19T03:15:29;20.67;;;13.30;;
66587;SDS011;53446;50.076;8.198;2022-08-19T03:17:30;16.52;;;11.93;;
66587;SDS011;53446;50.076;8.198;2022-08-19T03:19:30;18.27;;;12.60;;
66587;SDS011;53446;50.076;8.198;2022-08-19T03:21:32;16.83;;;12.27;;
66587;SDS011;53446;50.076;8.198;2022-08-19T03:23:33;17.20;;;12.10;;
66587;SDS011;53446;50.076;8.198;2022-08-19T03:25:40;15.02;;;10.85;;
66587;SDS011;53446;50.076;8.198;2022-08-19T03:27:43;16.67;;;11.40;;
66587;SDS011;53446;50.076;8.198;2022-08-19T03:29:43;15.40;;;11.30;;
66587;SDS011;53446;50.076;8.198;2022-08-19T03:31:43;17.17;;;11.93;;
66587;SDS011;53446;50.076;8.198;2022-08-19T03:33:44;16.25;;;11.82;;
66587;SDS011;53446;50.076;8.198;2022-08-19T03:35:45;18.80;;;13.15;;
66587;SDS011;53446;50.076;8.198;2022-08-19T03:37:45;16.73;;;12.40;;
66587;SDS011;53446;50.076;8.198;2022-08-19T03:39:45;15.53;;;11.47;;
66587;SDS011;53446;50.076;8.198;2022-08-19T03:41:46;14.83;;;11.63;;
66587;SDS011;53446;50.076;8.198;2022-08-19T03:43:49;15.13;;;11.30;;
66587;SDS011;53446;50.076;8.198;2022-08-19T03:45:58;14.93;;;11.60;;
66587;SDS011;53446;50.076;8.198;2022-08-19T03:47:59;20.00;;;12.87;;
66587;SDS011;53446;50.076;8.198;2022-08-19T03:50:00;18.42;;;12.38;;
66587;SDS011;53446;50.076;8.198;2022-08-19T03:52:00;17.60;;;11.90;;
66587;SDS011;53446;50.076;8.198;2022-08-19T03:54:03;18.20;;;13.00;;
66587;SDS011;53446;50.076;8.198;2022-08-19T03:56:05;20.23;;;14.13;;
66587;SDS011;53446;50.076;8.198;2022-08-19T03:58:08;15.55;;;11.30;;
66587;SDS011;53446;50.076;8.198;2022-08-19T04:00:11;15.70;;;11.70;;
66587;SDS011;53446;50.076;8.198;2022-08-19T04:02:12;15.43;;;11.20;;
66587;SDS011;53446;50.076;8.198;2022-08-19T04:04:12;17.30;;;12.77;;
66587;SDS011;53446;50.076;8.198;2022-08-19T04:06:15;17.90;;;11.88;;
66587;SDS011;53446;50.076;8.198;2022-08-19T04:08:17;18.70;;;13.18;;
66587;SDS011;53446;50.076;8.198;2022-08-19T04:10:20;19.63;;;12.82;;
66587;SDS011;53446;50.076;8.198;2022-08-19T04:12:20;16.47;;;12.23;;
66587;SDS011;53446;50.076;8.198;2022-08-19T04:14:21;18.20;;;12.53;;
66587;SDS011;53446;50.076;8.198;2022-08-19T04:16:25;18.05;;;12.50;;
66587;SDS011;53446;50.076;8.198;2022-08-19T04:18:30;20.95;;;12.98;;
66587;SDS011;53446;50.076;8.198;2022-08-19T04:20:31;18.95;;;12.60;;
66587;SDS011;53446;50.076;8.198;2022-08-19T04:22:31;16.70;;;12.70;;
66587;SDS011;53446;50.076;8.198;2022-08-19T04:24:31;20.13;;;13.20;;
66587;SDS011;53446;50.076;8.198;2022-08-19T04:26:33;18.57;;;12.93;;
66587;SDS011;53446;50.076;8.198;2022-08-19T04:28:34;17.88;;;12.55;;
66587;SDS011;53446;50.076;8.198;2022-08-19T04:30:39;17.13;;;12.77;;
66587;SDS011;53446;50.076;8.198;2022-08-19T04:32:41;18.05;;;12.45;;
66587;SDS011;53446;50.076;8.198;2022-08-19T04:34:43;19.00;;;13.47;;
66587;SDS011;53446;50.076;8.198;2022-08-19T04:36:44;20.65;;;13.88;;
66587;SDS011;53446;50.076;8.198;2022-08-19T04:38:44;19.50;;;13.07;;
66587;SDS011;53446;50.076;8.198;2022-08-19T04:40:48;19.40;;;14.10;;
66587;SDS011;53446;50.076;8.198;2022-08-19T04:43:09;19.50;;;13.05;;
66587;SDS011;53446;50.076;8.198;2022-08-19T04:45:12;19.90;;;13.25;;
66587;SDS011;53446;50.076;8.198;2022-08-19T04:47:13;19.30;;;13.25;;
66587;SDS011;53446;50.076;8.198;2022-08-19T04:49:14;19.27;;;13.23;;
66587;SDS011;53446;50.076;8.198;2022-08-19T04:51:16;21.58;;;13.48;;
66587;SDS011;53446;50.076;8.198;2022-08-19T04:53:17;21.10;;;13.27;;
66587;SDS011;53446;50.076;8.198;2022-08-19T04:55:17;18.77;;;13.13;;
66587;SDS011;53446;50.076;8.198;2022-08-19T04:57:17;20.60;;;13.47;;
66587;SDS011;53446;50.076;8.198;2022-08-19T04:59:18;20.48;;;13.20;;
66587;SDS011;53446;50.076;8.198;2022-08-19T05:01:21;19.03;;;13.80;;
66587;SDS011;53446;50.076;8.198;2022-08-19T05:03:23;19.92;;;12.48;;
66587;SDS011;53446;50.076;8.198;2022-08-19T05:05:23;21.10;;;13.37;;
66587;SDS011;53446;50.076;8.198;2022-08-19T05:07:23;22.97;;;13.97;;
66587;SDS011;53446;50.076;8.198;2022-08-19T05:09:24;21.35;;;14.02;;
66587;SDS011;53446;50.076;8.198;2022-08-19T05:11:26;18.17;;;12.82;;
66587;SDS011;53446;50.076;8.198;2022-08-19T05:13:28;19.77;;;12.93;;
66587;SDS011;53446;50.076;8.198;2022-08-19T05:15:29;18.70;;;13.63;;
66587;SDS011;53446;50.076;8.198;2022-08-19T05:17:30;18.70;;;13.13;;
66587;SDS011;53446;50.076;8.198;2022-08-19T05:19:30;18.80;;;12.85;;
66587;SDS011;53446;50.076;8.198;2022-08-19T05:21:49;20.08;;;11.85;;
66587;SDS011;53446;50.076;8.198;2022-08-19T05:24:08;17.40;;;12.55;;
66587;SDS011;53446;50.076;8.198;2022-08-19T05:26:08;21.30;;;13.30;;
66587;SDS011;53446;50.076;8.198;2022-08-19T05:28:10;20.20;;;12.93;;
66587;SDS011;53446;50.076;8.198;2022-08-19T05:30:11;20.07;;;12.80;;
66587;SDS011;53446;50.076;8.198;2022-08-19T05:32:12;22.67;;;12.00;;
66587;SDS011;53446;50.076;8.198;2022-08-19T05:34:12;19.03;;;11.97;;
66587;SDS011;53446;50.076;8.198;2022-08-19T05:36:13;19.10;;;12.57;;
66587;SDS011;53446;50.076;8.198;2022-08-19T05:38:14;17.03;;;11.40;;
66587;SDS011;53446;50.076;8.198;2022-08-19T05:40:14;16.00;;;11.20;;
66587;SDS011;53446;50.076;8.198;2022-08-19T05:42:14;14.73;;;10.40;;
66587;SDS011;53446;50.076;8.198;2022-08-19T05:44:15;18.33;;;12.70;;
66587;SDS011;53446;50.076;8.198;2022-08-19T05:46:17;18.15;;;12.73;;
66587;SDS011;53446;50.076;8.198;2022-08-19T05:48:18;16.48;;;11.52;;
66587;SDS011;53446;50.076;8.198;2022-08-19T05:50:20;16.40;;;11.30;;
66587;SDS011;53446;50.076;8.198;2022-08-19T05:52:21;17.63;;;11.85;;
66587;SDS011;53446;50.076;8.198;2022-08-19T05:54:22;17.70;;;11.70;;
66587;SDS011;53446;50.076;8.198;2022-08-19T05:56:23;17.35;;;12.25;;
66587;SDS011;53446;50.076;8.198;2022-08-19T05:58:23;21.07;;;11.47;;
66587;SDS011;53446;50.076;8.198;2022-08-19T06:00:24;15.50;;;10.75;;
66587;SDS011;53446;50.076;8.198;2022-08-19T06:02:25;16.83;;;11.17;;
66587;SDS011;53446;50.076;8.198;2022-08-19T06:04:26;16.17;;;11.50;;
66587;SDS011;53446;50.076;8.198;2022-08-19T06:06:26;15.37;;;11.20;;
66587;SDS011;53446;50.076;8.198;2022-08-19T06:08:27;16.70;;;9.87;;
66587;SDS011;53446;50.076;8.198;2022-08-19T06:10:27;16.50;;;10.77;;
66587;SDS011;53446;50.076;8.198;2022-08-19T06:12:28;16.37;;;10.97;;
66587;SDS011;53446;50.076;8.198;2022-08-19T06:14:32;14.77;;;10.45;;
66587;SDS011;53446;50.076;8.198;2022-08-19T06:16:35;19.50;;;12.30;;
66587;SDS011;53446;50.076;8.198;2022-08-19T06:18:36;18.77;;;13.13;;
66587;SDS011;53446;50.076;8.198;2022-08-19T06:20:36;19.83;;;12.20;;
66587;SDS011;53446;50.076;8.198;2022-08-19T06:22:41;17.08;;;11.73;;
66587;SDS011;53446;50.076;8.198;2022-08-19T06:24:42;16.17;;;11.97;;
66587;SDS011;53446;50.076;8.198;2022-08-19T06:26:43;16.75;;;11.65;;
66587;SDS011;53446;50.076;8.198;2022-08-19T06:28:46;16.13;;;11.70;;
66587;SDS011;53446;50.076;8.198;2022-08-19T06:30:47;15.73;;;11.07;;
66587;SDS011;53446;50.076;8.198;2022-08-19T06:32:47;15.17;;;11.33;;
66587;SDS011;53446;50.076;8.198;2022-08-19T06:34:47;15.35;;;11.10;;
66587;SDS011;53446;50.076;8.198;2022-08-19T06:36:48;16.50;;;11.30;;
66587;SDS011;53446;50.076;8.198;2022-08-19T06:38:50;21.50;;;11.27;;
66587;SDS011;53446;50.076;8.198;2022-08-19T06:40:50;15.18;;;11.02;;
66587;SDS011;53446;50.076;8.198;2022-08-19T06:42:50;20.58;;;11.98;;
66587;SDS011;53446;50.076;8.198;2022-08-19T06:44:51;15.27;;;10.70;;
66587;SDS011;53446;50.076;8.198;2022-08-19T06:46:51;13.47;;;10.07;;
66587;SDS011;53446;50.076;8.198;2022-08-19T06:48:53;16.65;;;11.90;;
66587;SDS011;53446;50.076;8.198;2022-08-19T06:50:54;17.43;;;11.00;;
66587;SDS011;53446;50.076;8.198;2022-08-19T06:52:54;15.15;;;10.32;;
66587;SDS011;53446;50.076;8.198;2022-08-19T06:54:54;16.52;;;10.15;;
66587;SDS011;53446;50.076;8.198;2022-08-19T06:56:56;15.53;;;10.40;;
66587;SDS011;53446;50.076;8.198;2022-08-19T06:59:07;16.40;;;10.45;;
66587;SDS011;53446;50.076;8.198;2022-08-19T07:01:09;15.75;;;9.23;;
66587;SDS011;53446;50.076;8.198;2022-08-19T07:03:09;17.20;;;10.23;;
66587;SDS011;53446;50.076;8.198;2022-08-19T07:05:10;14.65;;;9.38;;
66587;SDS011;53446;50.076;8.198;2022-08-19T07:07:11;16.77;;;9.90;;
66587;SDS011;53446;50.076;8.198;2022-08-19T07:09:13;14.48;;;10.13;;
66587;SDS011;53446;50.076;8.198;2022-08-19T07:11:16;16.38;;;10.38;;
66587;SDS011;53446;50.076;8.198;2022-08-19T07:13:17;16.67;;;9.95;;
66587;SDS011;53446;50.076;8.198;2022-08-19T07:15:19;15.18;;;10.40;;
66587;SDS011;53446;50.076;8.198;2022-08-19T07:17:21;14.82;;;9.57;;
66587;SDS011;53446;50.076;8.198;2022-08-19T07:19:22;16.10;;;10.00;;
66587;SDS011;53446;50.076;8.198;2022-08-19T07:21:25;15.38;;;9.50;;
66587;SDS011;53446;50.076;8.198;2022-08-19T07:23:27;14.53;;;8.90;;
66587;SDS011;53446;50.076;8.198;2022-08-19T07:25:27;13.10;;;8.93;;
66587;SDS011;53446;50.076;8.198;2022-08-19T07:27:28;16.45;;;10.32;;
66587;SDS011;53446;50.076;8.198;2022-08-19T07:29:29;17.30;;;10.23;;
66587;SDS011;53446;50.076;8.198;2022-08-19T07:31:32;14.80;;;9.00;;
66587;SDS011;53446;50.076;8.198;2022-08-19T07:33:36;15.23;;;9.53;;
66587;SDS011;53446;50.076;8.198;2022-08-19T07:35:37;13.35;;;8.85;;
66587;SDS011;53446;50.076;8.198;2022-08-19T07:37:37;14.80;;;9.53;;
66587;SDS011;53446;50.076;8.198;2022-08-19T07:39:38;16.23;;;10.13;;
66587;SDS011;53446;50.076;8.198;2022-08-19T07:41:39;16.80;;;9.35;;
66587;SDS011;53446;50.076;8.198;2022-08-19T07:43:39;20.80;;;12.10;;
66587;SDS011;53446;50.076;8.198;2022-08-19T07:45:40;19.20;;;12.00;;
66587;SDS011;53446;50.076;8.198;2022-08-19T07:47:40;17.37;;;10.90;;
66587;SDS011;53446;50.076;8.198;2022-08-19T07:49:41;19.17;;;12.87;;
66587;SDS011;53446;50.076;8.198;2022-08-19T07:51:42;22.13;;;14.68;;
66587;SDS011;53446;50.076;8.198;2022-08-19T07:53:42;24.77;;;16.67;;
66587;SDS011;53446;50.076;8.198;2022-08-19T07:55:44;25.52;;;17.08;;
66587;SDS011;53446;50.076;8.198;2022-08-19T07:57:44;24.60;;;16.13;;
66587;SDS011;53446;50.076;8.198;2022-08-19T07:59:45;24.60;;;16.20;;
66587;SDS011;53446;50.076;8.198;2022-08-19T08:01:45;21.50;;;14.73;;
66587;SDS011;53446;50.076;8.198;2022-08-19T08:03:46;24.25;;;16.05;;
66587;SDS011;53446;50.076;8.198;2022-08-19T08:06:09;25.60;;;18.80;;
66587;SDS011;53446;50.076;8.198;2022-08-19T08:08:28;26.08;;;16.92;;
66587;SDS011;53446;50.076;8.198;2022-08-19T08:10:49;26.52;;;18.92;;
66587;SDS011;53446;50.076;8.198;2022-08-19T08:12:50;27.25;;;18.17;;
66587;SDS011;53446;50.076;8.198;2022-08-19T08:14:52;21.10;;;14.77;;
66587;SDS011;53446;50.076;8.198;2022-08-19T08:16:54;25.90;;;17.00;;
66587;SDS011;53446;50.076;8.198;2022-08-19T08:18:55;24.52;;;16.02;;
66587;SDS011;53446;50.076;8.198;2022-08-19T08:20:55;21.00;;;14.10;;
66587;SDS011;53446;50.076;8.198;2022-08-19T08:22:56;21.08;;;14.60;;
66587;SDS011;53446;50.076;8.198;2022-08-19T08:25:17;22.15;;;14.90;;
66587;SDS011;53446;50.076;8.198;2022-08-19T08:27:20;23.15;;;16.15;;
66587;SDS011;53446;50.076;8.198;2022-08-19T08:29:20;26.63;;;19.43;;
66587;SDS011;53446;50.076;8.198;2022-08-19T08:31:20;22.73;;;18.27;;
66587;SDS011;53446;50.076;8.198;2022-08-19T08:33:22;29.13;;;20.10;;
66587;SDS011;53446;50.076;8.198;2022-08-19T08:35:23;23.90;;;18.07;;
66587;SDS011;53446;50.076;8.198;2022-08-19T08:37:24;21.63;;;16.30;;
66587;SDS011;53446;50.076;8.198;2022-08-19T08:39:24;21.07;;;15.53;;
66587;SDS011;53446;50.076;8.198;2022-08-19T08:41:41;20.47;;;14.70;;
66587;SDS011;53446;50.076;8.198;2022-08-19T08:43:48;20.13;;;14.25;;
66587;SDS011;53446;50.076;8.198;2022-08-19T08:48:13;16.30;;;12.55;;
66587;SDS011;53446;50.076;8.198;2022-08-19T08:50:19;18.00;;;11.47;;
66587;SDS011;53446;50.076;8.198;2022-08-19T08:52:30;16.77;;;13.10;;
66587;SDS011;53446;50.076;8.198;2022-08-19T08:54:38;15.88;;;12.55;;
66587;SDS011;53446;50.076;8.198;2022-08-19T08:56:41;16.58;;;12.35;;
66587;SDS011;53446;50.076;8.198;2022-08-19T08:58:47;17.75;;;12.10;;
66587;SDS011;53446;50.076;8.198;2022-08-19T09:01:01;18.50;;;12.97;;
66587;SDS011;53446;50.076;8.198;2022-08-19T09:03:03;17.63;;;12.57;;
66587;SDS011;53446;50.076;8.198;2022-08-19T09:05:05;16.50;;;11.60;;
66587;SDS011;53446;50.076;8.198;2022-08-19T09:07:11;16.23;;;13.67;;
66587;SDS011;53446;50.076;8.198;2022-08-19T09:12:16;20.88;;;16.52;;
66587;SDS011;53446;50.076;8.198;2022-08-19T09:14:20;19.10;;;16.42;;
66587;SDS011;53446;50.076;8.198;2022-08-19T09:16:23;19.95;;;15.52;;
66587;SDS011;53446;50.076;8.198;2022-08-19T09:18:38;20.13;;;18.00;;
66587;SDS011;53446;50.076;8.198;2022-08-19T09:20:58;25.60;;;19.70;;
66587;SDS011;53446;50.076;8.198;2022-08-19T09:22:59;18.77;;;16.77;;
66587;SDS011;53446;50.076;8.198;2022-08-19T09:24:59;20.30;;;16.63;;
66587;SDS011;53446;50.076;8.198;2022-08-19T09:26:59;21.23;;;18.77;;
66587;SDS011;53446;50.076;8.198;2022-08-19T09:29:00;21.73;;;17.70;;
66587;SDS011;53446;50.076;8.198;2022-08-19T09:31:01;22.30;;;17.17;;
66587;SDS011;53446;50.076;8.198;2022-08-19T09:33:02;24.53;;;17.93;;
66587;SDS011;53446;50.076;8.198;2022-08-19T09:35:02;23.37;;;17.30;;
66587;SDS011;53446;50.076;8.198;2022-08-19T09:37:02;20.03;;;15.57;;
66587;SDS011;53446;50.076;8.198;2022-08-19T09:39:03;20.57;;;17.27;;
66587;SDS011;53446;50.076;8.198;2022-08-19T09:41:05;19.45;;;14.35;;
66587;SDS011;53446;50.076;8.198;2022-08-19T09:43:13;17.50;;;13.77;;
66587;SDS011;53446;50.076;8.198;2022-08-19T09:45:14;19.33;;;14.73;;
66587;SDS011;53446;50.076;8.198;2022-08-19T09:47:16;16.42;;;13.57;;
66587;SDS011;53446;50.076;8.198;2022-08-19T09:49:17;14.43;;;12.00;;
66587;SDS011;53446;50.076;8.198;2022-08-19T09:51:22;18.73;;;12.98;;
66587;SDS011;53446;50.076;8.198;2022-08-19T09:53:23;14.93;;;10.80;;
66587;SDS011;53446;50.076;8.198;2022-08-19T09:55:24;14.77;;;12.00;;
66587;SDS011;53446;50.076;8.198;2022-08-19T09:57:25;13.05;;;11.32;;
66587;SDS011;53446;50.076;8.198;2022-08-19T09:59:26;11.77;;;10.20;;
66587;SDS011;53446;50.076;8.198;2022-08-19T10:01:28;13.93;;;10.73;;
66587;SDS011;53446;50.076;8.198;2022-08-19T10:03:29;13.07;;;9.17;;
66587;SDS011;53446;50.076;8.198;2022-08-19T10:05:30;12.93;;;10.10;;
66587;SDS011;53446;50.076;8.198;2022-08-19T10:07:48;12.48;;;9.98;;
66587;SDS011;53446;50.076;8.198;2022-08-19T10:09:48;13.67;;;9.60;;
66587;SDS011;53446;50.076;8.198;2022-08-19T10:11:49;13.57;;;9.37;;
66587;SDS011;53446;50.076;8.198;2022-08-19T10:13:49;12.43;;;9.37;;
66587;SDS011;53446;50.076;8.198;2022-08-19T10:15:50;11.13;;;9.55;;
66587;SDS011;53446;50.076;8.198;2022-08-19T10:17:56;11.83;;;9.73;;
66587;SDS011;53446;50.076;8.198;2022-08-19T10:19:56;12.85;;;8.75;;
66587;SDS011;53446;50.076;8.198;2022-08-19T10:21:56;13.40;;;10.55;;
66587;SDS011;53446;50.076;8.198;2022-08-19T10:23:58;12.30;;;10.00;;
66587;SDS011;53446;50.076;8.198;2022-08-19T10:25:59;14.65;;;9.18;;
66587;SDS011;53446;50.076;8.198;2022-08-19T10:28:00;12.65;;;9.13;;
66587;SDS011;53446;50.076;8.198;2022-08-19T10:30:00;13.63;;;9.20;;
66587;SDS011;53446;50.076;8.198;2022-08-19T10:32:01;14.02;;;10.05;;
66587;SDS011;53446;50.076;8.198;2022-08-19T10:34:04;11.80;;;8.83;;
66587;SDS011;53446;50.076;8.198;2022-08-19T10:36:09;12.43;;;9.45;;
66587;SDS011;53446;50.076;8.198;2022-08-19T10:38:11;13.70;;;9.25;;
66587;SDS011;53446;50.076;8.198;2022-08-19T10:40:11;11.63;;;9.40;;
66587;SDS011;53446;50.076;8.198;2022-08-19T10:42:12;12.77;;;8.98;;
66587;SDS011;53446;50.076;8.198;2022-08-19T10:44:13;11.98;;;9.90;;
66587;SDS011;53446;50.076;8.198;2022-08-19T10:46:14;10.60;;;8.43;;
66587;SDS011;53446;50.076;8.198;2022-08-19T10:48:15;9.80;;;8.02;;
66587;SDS011;53446;50.076;8.198;2022-08-19T10:50:15;13.00;;;9.10;;
66587;SDS011;53446;50.076;8.198;2022-08-19T10:52:34;13.52;;;8.77;;
66587;SDS011;53446;50.076;8.198;2022-08-19T10:54:35;9.47;;;7.73;;
66587;SDS011;53446;50.076;8.198;2022-08-19T10:56:53;10.50;;;7.78;;
66587;SDS011;53446;50.076;8.198;2022-08-19T10:58:54;10.17;;;7.80;;
66587;SDS011;53446;50.076;8.198;2022-08-19T11:00:57;9.00;;;6.60;;
66587;SDS011;53446;50.076;8.198;2022-08-19T11:02:58;9.13;;;5.95;;
66587;SDS011;53446;50.076;8.198;2022-08-19T11:04:58;10.10;;;7.17;;
66587;SDS011;53446;50.076;8.198;2022-08-19T11:06:58;10.07;;;6.60;;
66587;SDS011;53446;50.076;8.198;2022-08-19T11:08:59;9.00;;;7.53;;
66587;SDS011;53446;50.076;8.198;2022-08-19T11:11:00;10.43;;;7.25;;
66587;SDS011;53446;50.076;8.198;2022-08-19T11:13:02;11.32;;;8.20;;
66587;SDS011;53446;50.076;8.198;2022-08-19T11:15:03;11.23;;;7.77;;
66587;SDS011;53446;50.076;8.198;2022-08-19T11:17:04;12.27;;;8.00;;
66587;SDS011;53446;50.076;8.198;2022-08-19T11:19:06;8.98;;;7.15;;
66587;SDS011;53446;50.076;8.198;2022-08-19T11:23:17;9.13;;;6.78;;
66587;SDS011;53446;50.076;8.198;2022-08-19T11:25:17;10.10;;;7.03;;
66587;SDS011;53446;50.076;8.198;2022-08-19T11:27:17;8.90;;;6.70;;
66587;SDS011;53446;50.076;8.198;2022-08-19T11:29:20;9.00;;;7.57;;
66587;SDS011;53446;50.076;8.198;2022-08-19T11:31:22;8.55;;;6.50;;
66587;SDS011;53446;50.076;8.198;2022-08-19T11:33:24;9.02;;;7.05;;
66587;SDS011;53446;50.076;8.198;2022-08-19T11:35:26;11.07;;;6.45;;
66587;SDS011;53446;50.076;8.198;2022-08-19T11:37:26;9.03;;;6.63;;
66587;SDS011;53446;50.076;8.198;2022-08-19T11:39:28;8.20;;;6.10;;
66587;SDS011;53446;50.076;8.198;2022-08-19T11:41:30;9.38;;;6.75;;
66587;SDS011;53446;50.076;8.198;2022-08-19T11:43:30;7.63;;;6.85;;
66587;SDS011;53446;50.076;8.198;2022-08-19T11:45:31;8.50;;;5.90;;
66587;SDS011;53446;50.076;8.198;2022-08-19T11:47:31;7.80;;;5.73;;
66587;SDS011;53446;50.076;8.198;2022-08-19T11:49:31;8.57;;;5.83;;
66587;SDS011;53446;50.076;8.198;2022-08-19T11:51:35;10.32;;;6.30;;
66587;SDS011;53446;50.076;8.198;2022-08-19T11:53:36;7.80;;;6.33;;
66587;SDS011;53446;50.076;8.198;2022-08-19T11:55:38;7.93;;;5.97;;
66587;SDS011;53446;50.076;8.198;2022-08-19T11:57:40;9.13;;;6.32;;
66587;SDS011;53446;50.076;8.198;2022-08-19T11:59:47;8.75;;;6.50;;
66587;SDS011;53446;50.076;8.198;2022-08-19T12:01:48;9.13;;;6.60;;
66587;SDS011;53446;50.076;8.198;2022-08-19T12:03:49;9.20;;;6.17;;
66587;SDS011;53446;50.076;8.198;2022-08-19T12:05:51;8.13;;;6.53;;